createdAt,value
2018-08-03T00:01:56.155Z,9.30
2018-08-03T00:04:25.324Z,9.60
2018-08-03T00:06:54.491Z,9.48
2018-08-03T00:09:23.654Z,10.28
2018-08-03T00:11:52.859Z,10.10
2018-08-03T00:14:22.008Z,9.63
2018-08-03T00:16:51.154Z,10.68
2018-08-03T00:19:20.299Z,9.03
2018-08-03T00:21:49.434Z,9.38
2018-08-03T00:24:18.597Z,9.43
2018-08-03T00:26:47.839Z,10.40
2018-08-03T00:29:16.997Z,10.00
2018-08-03T00:31:46.158Z,9.98
2018-08-03T00:34:15.029Z,9.70
2018-08-03T00:36:44.024Z,9.43
2018-08-03T00:39:13.190Z,9.90
2018-08-03T00:41:42.401Z,9.63
2018-08-03T00:44:11.591Z,9.55
2018-08-03T00:46:40.738Z,10.00
2018-08-03T00:49:09.886Z,10.23
2018-08-03T00:51:39.026Z,9.43
2018-08-03T00:54:08.174Z,10.05
2018-08-03T00:56:37.323Z,9.23
2018-08-03T00:59:06.468Z,10.58
2018-08-03T01:01:35.617Z,10.23
2018-08-03T01:04:04.781Z,10.18
2018-08-03T01:06:33.980Z,26.35
2018-08-03T01:09:03.884Z,53.27
2018-08-03T01:11:33.009Z,11.10
2018-08-03T01:14:02.140Z,55.52
2018-08-03T01:16:35.011Z,15.85
2018-08-03T01:19:04.149Z,11.00
2018-08-03T01:21:33.294Z,11.70
2018-08-03T01:24:02.695Z,11.93
2018-08-03T01:26:32.304Z,12.40
2018-08-03T01:29:01.733Z,11.88
2018-08-03T01:31:31.097Z,12.10
2018-08-03T01:34:00.682Z,12.23
2018-08-03T01:36:29.824Z,12.40
2018-08-03T01:38:58.974Z,12.43
2018-08-03T01:41:28.225Z,12.33
2018-08-03T01:43:57.419Z,12.70
2018-08-03T01:46:26.581Z,12.27
2018-08-03T01:48:55.749Z,12.25
2018-08-03T01:51:24.906Z,12.30
2018-08-03T01:53:54.057Z,12.20
2018-08-03T01:56:23.158Z,13.03
2018-08-03T01:58:52.293Z,12.83
2018-08-03T02:01:21.438Z,11.50
2018-08-03T02:03:50.585Z,10.43
2018-08-03T02:06:19.722Z,10.93
2018-08-03T02:08:48.829Z,11.40
2018-08-03T02:11:17.984Z,11.60
2018-08-03T02:13:47.105Z,13.47
2018-08-03T02:16:16.229Z,11.67
2018-08-03T02:18:45.363Z,11.53
2018-08-03T02:21:14.501Z,11.50
2018-08-03T02:23:43.684Z,11.12
2018-08-03T02:26:12.825Z,12.17
2018-08-03T02:28:41.981Z,11.77
2018-08-03T02:31:11.111Z,10.90
2018-08-03T02:33:40.293Z,11.53
2018-08-03T02:36:09.469Z,11.50
2018-08-03T02:38:38.590Z,11.20
2018-08-03T02:41:07.751Z,10.67
2018-08-03T02:43:36.926Z,10.85
2018-08-03T02:46:12.734Z,10.55
2018-08-03T02:48:41.863Z,11.23
2018-08-03T02:51:10.969Z,10.40
2018-08-03T02:53:40.111Z,9.80
2018-08-03T02:56:09.249Z,10.20
2018-08-03T02:58:38.377Z,11.07
2018-08-03T03:01:08.034Z,10.77
2018-08-03T03:03:37.182Z,12.07
2018-08-03T03:06:06.579Z,11.53
2018-08-03T03:08:35.702Z,11.20
2018-08-03T03:11:04.932Z,11.87
2018-08-03T03:13:34.061Z,13.03
2018-08-03T03:16:03.313Z,12.07
2018-08-03T03:18:32.429Z,12.80
2018-08-03T03:21:01.566Z,12.80
2018-08-03T03:23:30.759Z,13.10
2018-08-03T03:25:59.969Z,13.03
2018-08-03T03:28:29.100Z,13.55
2018-08-03T03:30:58.266Z,13.13
2018-08-03T03:33:27.422Z,13.50
2018-08-03T03:35:56.517Z,13.00
2018-08-03T03:38:25.695Z,12.27
2018-08-03T03:40:54.837Z,11.22
2018-08-03T03:43:23.984Z,11.07
2018-08-03T03:45:53.087Z,10.80
2018-08-03T03:48:22.270Z,11.53
2018-08-03T03:50:51.478Z,10.53
2018-08-03T03:53:20.657Z,11.13
2018-08-03T03:55:50.015Z,11.00
2018-08-03T03:58:19.185Z,11.47
2018-08-03T04:00:48.312Z,11.23
2018-08-03T04:03:17.433Z,10.77
2018-08-03T04:05:46.618Z,10.93
2018-08-03T04:08:15.796Z,11.30
2018-08-03T04:10:44.983Z,11.03
2018-08-03T04:13:14.106Z,11.73
2018-08-03T04:15:43.274Z,12.37
2018-08-03T04:18:20.617Z,11.87
2018-08-03T04:20:50.905Z,13.83
2018-08-03T04:23:20.491Z,14.77
2018-08-03T04:25:49.650Z,15.50
2018-08-03T04:28:18.780Z,14.00
2018-08-03T04:30:47.924Z,13.23
2018-08-03T04:33:17.118Z,13.50
2018-08-03T04:35:46.263Z,14.13
2018-08-03T04:38:15.435Z,15.20
2018-08-03T04:40:44.572Z,15.73
2018-08-03T04:43:13.716Z,15.73
2018-08-03T04:45:42.871Z,14.90
2018-08-03T04:48:12.669Z,15.53
2018-08-03T04:50:41.829Z,15.30
2018-08-03T04:53:10.940Z,16.43
2018-08-03T04:55:40.093Z,15.30
2018-08-03T04:58:09.221Z,16.07
2018-08-03T05:00:38.608Z,16.97
2018-08-03T05:03:07.738Z,16.57
2018-08-03T05:05:36.981Z,17.87
2018-08-03T05:08:05.824Z,16.67
2018-08-03T05:10:34.874Z,17.00
2018-08-03T05:13:04.039Z,16.87
2018-08-03T05:15:33.304Z,16.90
2018-08-03T05:18:02.107Z,16.30
2018-08-03T05:20:31.118Z,18.27
2018-08-03T05:23:00.474Z,17.20
2018-08-03T05:25:29.648Z,17.30
2018-08-03T05:27:58.811Z,16.77
2018-08-03T05:30:28.071Z,18.57
2018-08-03T05:32:57.158Z,18.83
2018-08-03T05:35:26.367Z,19.13
2018-08-03T05:37:55.704Z,18.20
2018-08-03T05:40:24.888Z,18.43
2018-08-03T05:42:53.997Z,16.13
2018-08-03T05:45:23.264Z,17.23
2018-08-03T05:47:52.474Z,16.00
2018-08-03T05:50:21.626Z,17.43
2018-08-03T05:52:50.738Z,16.47
2018-08-03T05:55:19.988Z,18.27
2018-08-03T05:57:49.216Z,17.95
2018-08-03T06:00:18.373Z,17.03
2018-08-03T06:02:47.824Z,19.10
2018-08-03T06:05:17.070Z,19.23
2018-08-03T06:07:46.274Z,18.80
2018-08-03T06:10:16.347Z,18.80
2018-08-03T06:12:45.567Z,18.47
2018-08-03T06:15:14.971Z,18.17
2018-08-03T06:17:44.140Z,20.70
2018-08-03T06:20:14.010Z,20.73
2018-08-03T06:22:44.245Z,18.73
2018-08-03T06:25:13.576Z,19.53
2018-08-03T06:27:43.494Z,18.37
2018-08-03T06:30:12.982Z,19.33
2018-08-03T06:32:42.121Z,19.47
2018-08-03T06:35:11.304Z,18.70
2018-08-03T06:37:40.542Z,17.05
2018-08-03T06:40:09.737Z,17.77
2018-08-03T06:42:38.938Z,17.48
2018-08-03T06:45:08.194Z,18.32
2018-08-03T06:47:37.810Z,18.42
2018-08-03T06:50:06.984Z,18.20
2018-08-03T06:52:35.882Z,17.27
2018-08-03T06:55:05.132Z,17.50
2018-08-03T06:57:34.472Z,16.37
2018-08-03T07:00:04.502Z,16.10
2018-08-03T07:02:34.067Z,16.85
2018-08-03T07:05:03.265Z,16.10
2018-08-03T07:07:32.494Z,16.35
2018-08-03T07:10:01.317Z,15.20
2018-08-03T07:12:30.386Z,15.18
2018-08-03T07:14:59.604Z,15.43
2018-08-03T07:17:28.721Z,13.80
2018-08-03T07:19:58.212Z,14.20
2018-08-03T07:22:27.276Z,14.15
2018-08-03T07:25:02.533Z,14.85
2018-08-03T07:27:31.569Z,13.45
2018-08-03T07:30:00.746Z,13.55
2018-08-03T07:32:29.962Z,13.48
2018-08-03T07:34:59.138Z,11.48
2018-08-03T07:37:28.366Z,11.48
2018-08-03T07:39:57.679Z,11.93
2018-08-03T07:42:26.874Z,12.33
2018-08-03T07:44:56.042Z,11.48
2018-08-03T07:47:25.478Z,13.03
2018-08-03T07:49:54.612Z,12.58
2018-08-03T07:52:23.851Z,12.37
2018-08-03T07:54:52.969Z,13.22
2018-08-03T07:57:22.160Z,13.25
2018-08-03T07:59:51.443Z,11.97
2018-08-03T08:02:20.691Z,12.05
2018-08-03T08:04:50.347Z,11.97
2018-08-03T08:07:19.630Z,12.33
2018-08-03T08:09:48.778Z,12.10
2018-08-03T08:12:17.983Z,12.28
2018-08-03T08:14:47.169Z,12.53
2018-08-03T08:17:16.550Z,11.45
2018-08-03T08:19:45.699Z,11.30
2018-08-03T08:22:14.784Z,10.98
2018-08-03T08:24:43.858Z,11.95
2018-08-03T08:27:13.156Z,10.65
2018-08-03T08:29:42.382Z,11.45
2018-08-03T08:32:11.592Z,10.43
2018-08-03T08:34:40.815Z,10.82
2018-08-03T08:37:10.313Z,11.33
2018-08-03T08:39:39.939Z,11.28
2018-08-03T08:42:09.054Z,10.65
2018-08-03T08:44:38.238Z,10.70
2018-08-03T08:47:07.487Z,10.85
2018-08-03T08:49:36.679Z,11.83
2018-08-03T08:52:05.945Z,11.90
2018-08-03T08:54:35.236Z,11.65
2018-08-03T08:57:04.425Z,12.45
2018-08-03T08:59:33.632Z,12.20
2018-08-03T09:02:03.773Z,11.78
2018-08-03T09:04:32.962Z,11.73
2018-08-03T09:07:02.289Z,10.72
2018-08-03T09:09:31.563Z,10.70
2018-08-03T09:12:00.797Z,10.50
2018-08-03T09:14:29.994Z,11.53
2018-08-03T09:16:59.201Z,10.63
2018-08-03T09:19:28.366Z,10.35
2018-08-03T09:21:57.593Z,11.15
2018-08-03T09:24:26.949Z,10.93
2018-08-03T09:26:56.110Z,12.07
2018-08-03T09:29:25.334Z,12.18
2018-08-03T09:31:54.509Z,10.88
2018-08-03T09:34:23.731Z,12.25
2018-08-03T09:36:52.926Z,12.23
2018-08-03T09:39:22.135Z,12.80
2018-08-03T09:41:51.331Z,12.25
2018-08-03T09:44:21.359Z,12.33
2018-08-03T09:46:50.575Z,11.28
2018-08-03T09:49:19.961Z,11.08
2018-08-03T09:51:49.351Z,11.53
2018-08-03T09:54:19.292Z,16.70
2018-08-03T09:56:48.454Z,12.45
2018-08-03T09:59:17.610Z,12.13
2018-08-03T10:01:46.937Z,11.38
2018-08-03T10:04:16.084Z,11.60
2018-08-03T10:06:45.317Z,11.93
2018-08-03T10:09:14.538Z,12.18
2018-08-03T10:11:43.693Z,14.03
2018-08-03T10:14:12.570Z,10.68
2018-08-03T10:16:41.659Z,11.20
2018-08-03T10:19:10.847Z,11.05
2018-08-03T10:21:40.081Z,10.95
2018-08-03T10:24:09.281Z,11.33
2018-08-03T10:26:38.473Z,10.58
2018-08-03T10:29:08.645Z,11.03
2018-08-03T10:31:37.849Z,10.85
2018-08-03T10:34:07.106Z,10.65
2018-08-03T10:36:36.450Z,10.72
2018-08-03T10:39:07.749Z,10.43
2018-08-03T10:41:37.662Z,10.23
2018-08-03T10:44:07.185Z,10.70
2018-08-03T10:46:36.346Z,10.60
2018-08-03T10:49:05.649Z,11.28
2018-08-03T10:51:34.843Z,12.93
2018-08-03T10:54:04.039Z,12.88
2018-08-03T10:56:33.189Z,13.35
2018-08-03T10:59:02.423Z,10.68
2018-08-03T11:01:31.768Z,11.90
2018-08-03T11:04:00.864Z,11.43
2018-08-03T11:06:30.085Z,10.18
2018-08-03T11:08:59.212Z,10.00
2018-08-03T11:11:28.438Z,10.43
2018-08-03T11:13:57.734Z,10.20
2018-08-03T11:16:27.122Z,10.18
2018-08-03T11:18:56.427Z,10.32
2018-08-03T11:21:25.568Z,9.70
2018-08-03T11:23:54.868Z,9.38
2018-08-03T11:26:24.062Z,9.03
2018-08-03T11:28:52.960Z,9.18
2018-08-03T11:31:22.112Z,8.85
2018-08-03T11:33:51.306Z,8.43
2018-08-03T11:36:20.493Z,8.48
2018-08-03T11:38:49.693Z,8.50
2018-08-03T11:41:19.124Z,9.08
2018-08-03T11:43:48.314Z,8.23
2018-08-03T11:46:17.521Z,9.28
2018-08-03T11:48:48.396Z,8.73
2018-08-03T11:51:17.570Z,8.65
2018-08-03T11:53:46.749Z,8.90
2018-08-03T11:56:15.937Z,9.18
2018-08-03T11:58:45.114Z,8.45
2018-08-03T12:01:14.270Z,9.50
2018-08-03T12:03:43.462Z,7.92
2018-08-03T12:06:12.642Z,7.97
2018-08-03T12:08:41.849Z,8.20
2018-08-03T12:11:11.037Z,8.50
2018-08-03T12:13:40.357Z,8.53
2018-08-03T12:16:09.591Z,8.98
2018-08-03T12:18:38.739Z,8.58
2018-08-03T12:21:07.941Z,7.90
2018-08-03T12:23:37.230Z,7.35
2018-08-03T12:26:06.310Z,8.23
2018-08-03T12:28:35.475Z,8.95
2018-08-03T12:31:04.637Z,9.18
2018-08-03T12:33:33.869Z,9.15
2018-08-03T12:36:03.709Z,9.28
2018-08-03T12:38:32.907Z,8.98
2018-08-03T12:41:02.085Z,7.92
2018-08-03T12:43:32.160Z,9.95
2018-08-03T12:46:01.347Z,8.05
2018-08-03T12:48:30.483Z,8.18
2018-08-03T12:50:59.699Z,8.55
2018-08-03T12:53:28.885Z,7.92
2018-08-03T12:55:58.129Z,8.68
2018-08-03T12:58:27.287Z,7.87
2018-08-03T13:00:56.423Z,8.18
2018-08-03T13:03:25.626Z,8.90
2018-08-03T13:05:54.944Z,8.08
2018-08-03T13:08:23.940Z,8.48
2018-08-03T13:10:52.830Z,8.70
2018-08-03T13:13:22.056Z,8.45
2018-08-03T13:15:51.178Z,7.85
2018-08-03T13:18:20.362Z,7.40
2018-08-03T13:20:49.486Z,7.72
2018-08-03T13:23:18.693Z,8.65
2018-08-03T13:25:47.840Z,9.03
2018-08-03T13:28:17.039Z,11.80
2018-08-03T13:30:46.278Z,7.80
2018-08-03T13:33:15.524Z,7.75
2018-08-03T13:35:44.636Z,8.85
2018-08-03T13:38:14.530Z,7.67
2018-08-03T13:40:43.882Z,7.15
2018-08-03T13:43:13.082Z,7.40
2018-08-03T13:45:43.284Z,7.87
2018-08-03T13:48:12.461Z,9.15
2018-08-03T13:50:41.668Z,9.63
2018-08-03T13:53:10.846Z,8.63
2018-08-03T13:55:40.011Z,7.92
2018-08-03T13:58:10.365Z,8.48
2018-08-03T14:00:39.518Z,7.22
2018-08-03T14:03:08.756Z,7.65
2018-08-03T14:05:37.972Z,7.50
2018-08-03T14:08:07.220Z,7.65
2018-08-03T14:10:36.377Z,7.90
2018-08-03T14:13:05.853Z,7.65
2018-08-03T14:15:35.003Z,7.70
2018-08-03T14:18:04.300Z,7.55
2018-08-03T14:20:33.519Z,6.87
2018-08-03T14:23:02.732Z,7.97
2018-08-03T14:25:31.984Z,7.62
2018-08-03T14:28:01.181Z,7.50
2018-08-03T14:30:30.378Z,7.45
2018-08-03T14:32:59.561Z,13.00
2018-08-03T14:35:28.794Z,8.03
2018-08-03T14:37:58.030Z,7.70
2018-08-03T14:40:27.380Z,7.50
2018-08-03T14:42:56.613Z,7.28
2018-08-03T14:45:25.876Z,8.03
2018-08-03T14:47:55.107Z,7.80
2018-08-03T14:50:24.686Z,7.45
2018-08-03T14:52:53.831Z,7.62
2018-08-03T14:55:23.281Z,7.62
2018-08-03T14:57:52.446Z,7.47
2018-08-03T15:00:21.677Z,7.75
2018-08-03T15:02:50.842Z,6.80
2018-08-03T15:05:20.274Z,7.90
2018-08-03T15:07:49.586Z,7.30
2018-08-03T15:10:18.681Z,6.87
2018-08-03T15:12:47.872Z,8.58
2018-08-03T15:15:17.100Z,7.65
2018-08-03T15:17:46.285Z,8.30
2018-08-03T15:20:15.499Z,8.25
2018-08-03T15:22:44.634Z,7.85
2018-08-03T15:25:13.854Z,8.18
2018-08-03T15:27:43.107Z,7.17
2018-08-03T15:30:12.750Z,7.30
2018-08-03T15:32:42.021Z,7.75
2018-08-03T15:35:11.223Z,7.60
2018-08-03T15:37:40.458Z,7.47
2018-08-03T15:40:09.712Z,7.80
2018-08-03T15:42:38.930Z,8.18
2018-08-03T15:45:08.623Z,7.20
2018-08-03T15:47:37.914Z,7.35
2018-08-03T15:50:07.260Z,9.58
2018-08-03T15:52:36.459Z,9.20
2018-08-03T15:55:05.644Z,8.88
2018-08-03T15:57:34.866Z,8.40
2018-08-03T16:00:05.138Z,8.93
2018-08-03T16:02:34.403Z,7.37
2018-08-03T16:05:03.654Z,8.18
2018-08-03T16:07:32.545Z,7.97
2018-08-03T16:10:01.646Z,7.85
2018-08-03T16:12:30.829Z,7.62
2018-08-03T16:15:00.063Z,7.78
2018-08-03T16:17:29.252Z,7.47
2018-08-03T16:19:58.577Z,7.40
2018-08-03T16:22:28.010Z,7.30
2018-08-03T16:24:57.173Z,8.20
2018-08-03T16:27:26.366Z,7.67
2018-08-03T16:29:55.544Z,7.85
2018-08-03T16:32:24.723Z,7.15
2018-08-03T16:34:53.918Z,7.83
2018-08-03T16:37:23.346Z,8.28
2018-08-03T16:39:52.197Z,7.60
2018-08-03T16:42:21.323Z,7.17
2018-08-03T16:44:50.557Z,7.65
2018-08-03T16:47:19.734Z,7.50
2018-08-03T16:49:49.032Z,7.20
2018-08-03T16:52:18.310Z,7.47
2018-08-03T16:54:47.581Z,7.40
2018-08-03T16:57:16.809Z,7.00
2018-08-03T16:59:45.954Z,7.42
2018-08-03T17:02:15.398Z,7.72
2018-08-03T17:04:44.672Z,7.65
2018-08-03T17:07:13.908Z,7.78
2018-08-03T17:09:43.076Z,7.87
2018-08-03T17:12:12.289Z,6.95
2018-08-03T17:14:41.545Z,7.28
2018-08-03T17:17:10.677Z,6.83
2018-08-03T17:19:39.872Z,7.55
2018-08-03T17:22:09.070Z,7.70
2018-08-03T17:24:38.314Z,7.40
2018-08-03T17:27:07.528Z,10.08
2018-08-03T17:29:36.747Z,8.23
2018-08-03T17:32:05.963Z,7.70
2018-08-03T17:34:35.093Z,7.55
2018-08-03T17:37:04.344Z,8.45
2018-08-03T17:39:33.550Z,8.38
2018-08-03T17:42:02.749Z,7.30
2018-08-03T17:44:31.910Z,7.45
2018-08-03T17:47:01.111Z,7.83
2018-08-03T17:49:30.309Z,7.47
2018-08-03T17:51:59.501Z,6.90
2018-08-03T17:54:28.677Z,7.45
2018-08-03T17:56:57.819Z,7.17
2018-08-03T17:59:27.792Z,7.40
2018-08-03T18:01:56.954Z,7.50
2018-08-03T18:04:26.530Z,7.75
2018-08-03T18:06:55.718Z,6.90
2018-08-03T18:09:25.423Z,6.67
2018-08-03T18:11:54.604Z,7.37
2018-08-03T18:14:23.837Z,7.30
2018-08-03T18:16:53.073Z,7.17
2018-08-03T18:19:22.313Z,6.95
2018-08-03T18:21:51.571Z,7.50
2018-08-03T18:24:20.806Z,6.90
2018-08-03T18:26:50.577Z,7.25
2018-08-03T18:29:19.796Z,6.65
2018-08-03T18:31:48.881Z,6.78
2018-08-03T18:34:18.081Z,7.03
2018-08-03T18:36:47.665Z,7.22
2018-08-03T18:39:16.848Z,6.72
2018-08-03T18:41:46.005Z,7.10
2018-08-03T18:44:15.450Z,7.47
2018-08-03T18:46:44.637Z,6.85
2018-08-03T18:49:13.755Z,7.37
2018-08-03T18:51:42.869Z,7.55
2018-08-03T18:54:12.113Z,7.33
2018-08-03T18:56:41.419Z,6.92
2018-08-03T18:59:10.613Z,6.80
2018-08-03T19:01:39.825Z,6.90
2018-08-03T19:04:09.029Z,6.53
2018-08-03T19:06:38.166Z,6.40
2018-08-03T19:09:08.081Z,6.78
2018-08-03T19:11:37.232Z,6.60
2018-08-03T19:14:06.625Z,6.83
2018-08-03T19:16:39.402Z,7.08
2018-08-03T19:19:08.566Z,7.12
2018-08-03T19:21:37.746Z,7.50
2018-08-03T19:24:06.949Z,7.92
2018-08-03T19:26:36.845Z,7.00
2018-08-03T19:29:06.033Z,8.80
2018-08-03T19:31:35.209Z,9.60
2018-08-03T19:34:04.081Z,8.60
2018-08-03T19:36:33.114Z,8.40
2018-08-03T19:39:02.295Z,7.78
2018-08-03T19:41:31.430Z,7.42
2018-08-03T19:44:00.620Z,7.15
2018-08-03T19:46:29.761Z,7.05
2018-08-03T19:48:58.914Z,7.58
2018-08-03T19:51:28.134Z,7.37
2018-08-03T19:53:57.281Z,7.60
2018-08-03T19:56:28.083Z,7.85
2018-08-03T19:58:58.449Z,8.35
2018-08-03T20:01:27.642Z,8.20
2018-08-03T20:03:56.886Z,8.75
2018-08-03T20:06:26.741Z,7.95
2018-08-03T20:08:56.927Z,8.08
2018-08-03T20:11:26.051Z,8.15
2018-08-03T20:13:55.301Z,9.13
2018-08-03T20:16:25.341Z,8.68
2018-08-03T20:18:54.529Z,8.08
2018-08-03T20:21:23.677Z,8.30
2018-08-03T20:23:52.838Z,8.08
2018-08-03T20:26:21.985Z,8.70
2018-08-03T20:28:51.265Z,8.78
2018-08-03T20:31:20.522Z,8.60
2018-08-03T20:33:50.072Z,8.63
2018-08-03T20:36:19.940Z,7.80
2018-08-03T20:38:49.064Z,8.40
2018-08-03T20:41:18.246Z,8.65
2018-08-03T20:43:47.443Z,8.83
2018-08-03T20:46:16.587Z,8.18
2018-08-03T20:48:45.766Z,8.60
2018-08-03T20:51:15.032Z,9.00
2018-08-03T20:53:44.166Z,8.83
2018-08-03T20:56:13.347Z,8.68
2018-08-03T20:58:42.448Z,8.03
2018-08-03T21:01:11.591Z,9.18
2018-08-03T21:03:40.690Z,8.58
2018-08-03T21:06:09.892Z,8.48
2018-08-03T21:08:39.045Z,8.58
2018-08-03T21:11:08.219Z,8.33
2018-08-03T21:13:37.041Z,7.90
2018-08-03T21:16:06.079Z,8.03
2018-08-03T21:18:35.292Z,8.55
2018-08-03T21:21:04.444Z,8.25
2018-08-03T21:23:34.040Z,8.75
2018-08-03T21:26:03.470Z,8.38
2018-08-03T21:28:32.644Z,8.13
2018-08-03T21:31:01.918Z,7.97
2018-08-03T21:33:31.700Z,8.60
2018-08-03T21:36:00.888Z,9.15
2018-08-03T21:38:30.013Z,8.90
2018-08-03T21:41:00.614Z,8.53
2018-08-03T21:43:29.852Z,8.38
2018-08-03T21:45:58.994Z,8.50
2018-08-03T21:48:28.645Z,8.53
2018-08-03T21:50:57.802Z,8.35
2018-08-03T21:53:27.509Z,8.68
2018-08-03T21:55:56.770Z,8.10
2018-08-03T21:58:26.025Z,8.88
2018-08-03T22:00:56.056Z,8.30
2018-08-03T22:03:25.318Z,8.80
2018-08-03T22:05:54.489Z,8.55
2018-08-03T22:08:23.625Z,9.33
2018-08-03T22:10:52.826Z,8.73
2018-08-03T22:13:21.973Z,9.60
2018-08-03T22:15:51.114Z,10.80
2018-08-03T22:18:20.365Z,10.13
2018-08-03T22:20:49.551Z,9.48
2018-08-03T22:23:18.777Z,8.98
2018-08-03T22:25:47.949Z,9.43
2018-08-03T22:28:17.121Z,9.60
2018-08-03T22:30:46.328Z,9.40
2018-08-03T22:33:15.488Z,9.10
2018-08-03T22:35:44.661Z,9.15
2018-08-03T22:38:13.915Z,8.70
2018-08-03T22:40:43.054Z,8.45
2018-08-03T22:43:12.208Z,9.00
2018-08-03T22:45:41.440Z,8.50
2018-08-03T22:48:10.522Z,8.53
2018-08-03T22:50:39.704Z,8.50
2018-08-03T22:53:09.095Z,8.20
2018-08-03T22:55:38.241Z,8.30
2018-08-03T22:58:07.391Z,8.58
2018-08-03T23:00:36.529Z,8.68
2018-08-03T23:03:05.794Z,9.10
2018-08-03T23:05:34.935Z,8.75
2018-08-03T23:08:04.111Z,9.28
2018-08-03T23:10:33.240Z,9.28
2018-08-03T23:13:02.378Z,9.08
2018-08-03T23:15:31.534Z,8.83
2018-08-03T23:18:00.647Z,9.60
2018-08-03T23:20:29.794Z,9.65
2018-08-03T23:22:58.931Z,9.88
2018-08-03T23:25:28.049Z,9.95
2018-08-03T23:27:57.582Z,10.00
2018-08-03T23:30:26.797Z,10.53
2018-08-03T23:32:55.931Z,10.28
2018-08-03T23:35:25.144Z,9.90
2018-08-03T23:37:54.353Z,9.75
2018-08-03T23:40:23.469Z,10.88
2018-08-03T23:42:52.602Z,9.95
2018-08-03T23:45:21.734Z,9.88
2018-08-03T23:47:50.915Z,10.63
2018-08-03T23:50:20.034Z,10.30
2018-08-03T23:52:49.811Z,9.73
2018-08-03T23:55:18.962Z,10.45
2018-08-03T23:57:48.143Z,10.03
